sensor_id;sensor_type;location;lat;lon;timestamp;temperature;humidity
11855;DHT22;5987;53.140;8.904;2023-03-23T00:01:50;11.10;99.90
11855;DHT22;5987;53.140;8.904;2023-03-23T00:04:55;11.10;99.90
11855;DHT22;5987;53.140;8.904;2023-03-23T00:07:57;11.00;99.90
11855;DHT22;5987;53.140;8.904;2023-03-23T00:11:04;11.00;99.90
11855;DHT22;5987;53.140;8.904;2023-03-23T00:14:09;11.00;99.90
11855;DHT22;5987;53.140;8.904;2023-03-23T00:17:14;11.00;99.90
11855;DHT22;5987;53.140;8.904;2023-03-23T00:20:17;11.00;99.90
11855;DHT22;5987;53.140;8.904;2023-03-23T00:23:21;11.00;99.90
11855;DHT22;5987;53.140;8.904;2023-03-23T00:26:26;11.00;99.90
11855;DHT22;5987;53.140;8.904;2023-03-23T00:29:30;11.00;99.90
11855;DHT22;5987;53.140;8.904;2023-03-23T00:32:32;11.00;99.90
11855;DHT22;5987;53.140;8.904;2023-03-23T00:35:35;11.00;99.90
11855;DHT22;5987;53.140;8.904;2023-03-23T00:38:39;11.00;99.90
11855;DHT22;5987;53.140;8.904;2023-03-23T00:41:44;11.00;99.90
11855;DHT22;5987;53.140;8.904;2023-03-23T00:44:48;11.00;99.90
11855;DHT22;5987;53.140;8.904;2023-03-23T00:47:50;11.00;99.90
11855;DHT22;5987;53.140;8.904;2023-03-23T00:50:59;11.00;99.90
11855;DHT22;5987;53.140;8.904;2023-03-23T00:54:06;11.10;99.90
11855;DHT22;5987;53.140;8.904;2023-03-23T00:57:11;11.10;99.90
11855;DHT22;5987;53.140;8.904;2023-03-23T01:00:14;11.10;99.90
11855;DHT22;5987;53.140;8.904;2023-03-23T01:03:17;11.10;99.90
11855;DHT22;5987;53.140;8.904;2023-03-23T01:06:20;11.00;99.90
11855;DHT22;5987;53.140;8.904;2023-03-23T01:09:22;11.10;99.90
11855;DHT22;5987;53.140;8.904;2023-03-23T01:12:26;11.10;99.90
11855;DHT22;5987;53.140;8.904;2023-03-23T01:15:29;11.10;99.90
11855;DHT22;5987;53.140;8.904;2023-03-23T01:18:31;11.50;99.90
11855;DHT22;5987;53.140;8.904;2023-03-23T01:21:34;11.10;99.90
11855;DHT22;5987;53.140;8.904;2023-03-23T01:24:37;11.20;99.90
11855;DHT22;5987;53.140;8.904;2023-03-23T01:27:41;11.20;99.90
11855;DHT22;5987;53.140;8.904;2023-03-23T01:30:43;11.20;99.90
11855;DHT22;5987;53.140;8.904;2023-03-23T01:33:47;11.20;99.90
11855;DHT22;5987;53.140;8.904;2023-03-23T01:36:51;11.20;99.90
11855;DHT22;5987;53.140;8.904;2023-03-23T01:39:54;11.20;99.90
11855;DHT22;5987;53.140;8.904;2023-03-23T01:42:58;11.10;99.90
11855;DHT22;5987;53.140;8.904;2023-03-23T01:46:00;11.10;99.90
11855;DHT22;5987;53.140;8.904;2023-03-23T01:49:06;11.10;99.90
11855;DHT22;5987;53.140;8.904;2023-03-23T01:52:14;11.10;99.90
11855;DHT22;5987;53.140;8.904;2023-03-23T01:55:19;11.10;99.90
11855;DHT22;5987;53.140;8.904;2023-03-23T01:58:27;11.10;99.90
11855;DHT22;5987;53.140;8.904;2023-03-23T02:01:35;11.10;99.90
11855;DHT22;5987;53.140;8.904;2023-03-23T02:04:40;11.10;99.90
11855;DHT22;5987;53.140;8.904;2023-03-23T02:07:44;11.10;99.90
11855;DHT22;5987;53.140;8.904;2023-03-23T02:10:48;11.10;99.90
11855;DHT22;5987;53.140;8.904;2023-03-23T02:13:52;11.10;99.90
11855;DHT22;5987;53.140;8.904;2023-03-23T02:16:59;11.10;99.90
11855;DHT22;5987;53.140;8.904;2023-03-23T02:20:13;11.20;99.90
11855;DHT22;5987;53.140;8.904;2023-03-23T02:23:58;11.20;99.90
11855;DHT22;5987;53.140;8.904;2023-03-23T02:27:43;11.20;99.90
11855;DHT22;5987;53.140;8.904;2023-03-23T02:31:28;11.20;99.90
11855;DHT22;5987;53.140;8.904;2023-03-23T02:34:45;11.20;99.90
11855;DHT22;5987;53.140;8.904;2023-03-23T02:37:56;11.20;99.90
11855;DHT22;5987;53.140;8.904;2023-03-23T02:41:03;11.20;99.90
11855;DHT22;5987;53.140;8.904;2023-03-23T02:44:07;11.20;99.90
11855;DHT22;5987;53.140;8.904;2023-03-23T02:47:15;11.20;99.90
11855;DHT22;5987;53.140;8.904;2023-03-23T02:50:24;11.20;99.90
11855;DHT22;5987;53.140;8.904;2023-03-23T02:53:30;11.20;99.90
11855;DHT22;5987;53.140;8.904;2023-03-23T02:56:37;11.30;99.90
11855;DHT22;5987;53.140;8.904;2023-03-23T02:59:41;11.20;99.90
11855;DHT22;5987;53.140;8.904;2023-03-23T03:02:46;11.20;99.90
11855;DHT22;5987;53.140;8.904;2023-03-23T03:06:01;11.20;99.90
11855;DHT22;5987;53.140;8.904;2023-03-23T03:09:14;11.20;99.90
11855;DHT22;5987;53.140;8.904;2023-03-23T03:12:34;11.20;99.90
11855;DHT22;5987;53.140;8.904;2023-03-23T03:15:48;11.30;99.90
11855;DHT22;5987;53.140;8.904;2023-03-23T03:19:01;11.20;99.90
11855;DHT22;5987;53.140;8.904;2023-03-23T03:22:09;11.20;99.90
11855;DHT22;5987;53.140;8.904;2023-03-23T03:25:13;11.20;99.90
11855;DHT22;5987;53.140;8.904;2023-03-23T03:28:18;11.30;99.90
11855;DHT22;5987;53.140;8.904;2023-03-23T03:31:28;11.30;99.90
11855;DHT22;5987;53.140;8.904;2023-03-23T03:34:33;11.30;99.90
11855;DHT22;5987;53.140;8.904;2023-03-23T03:37:38;11.30;99.90
11855;DHT22;5987;53.140;8.904;2023-03-23T03:40:41;11.40;99.90
11855;DHT22;5987;53.140;8.904;2023-03-23T03:43:43;11.40;99.90
11855;DHT22;5987;53.140;8.904;2023-03-23T03:46:46;11.40;99.90
11855;DHT22;5987;53.140;8.904;2023-03-23T03:49:48;11.40;99.90
11855;DHT22;5987;53.140;8.904;2023-03-23T03:52:52;11.30;99.90
11855;DHT22;5987;53.140;8.904;2023-03-23T03:55:54;11.40;99.90
11855;DHT22;5987;53.140;8.904;2023-03-23T03:59:00;11.40;99.90
11855;DHT22;5987;53.140;8.904;2023-03-23T04:02:03;11.40;99.90
11855;DHT22;5987;53.140;8.904;2023-03-23T04:05:06;11.40;99.90
11855;DHT22;5987;53.140;8.904;2023-03-23T04:08:11;11.40;99.90
11855;DHT22;5987;53.140;8.904;2023-03-23T04:11:14;11.40;99.90
11855;DHT22;5987;53.140;8.904;2023-03-23T04:14:17;11.40;99.90
11855;DHT22;5987;53.140;8.904;2023-03-23T04:17:20;11.40;99.90
11855;DHT22;5987;53.140;8.904;2023-03-23T04:20:23;11.40;99.90
11855;DHT22;5987;53.140;8.904;2023-03-23T04:23:28;11.40;99.90
11855;DHT22;5987;53.140;8.904;2023-03-23T04:26:34;11.40;99.90
11855;DHT22;5987;53.140;8.904;2023-03-23T04:29:36;11.40;99.90
11855;DHT22;5987;53.140;8.904;2023-03-23T04:32:39;11.40;99.90
11855;DHT22;5987;53.140;8.904;2023-03-23T04:35:43;11.50;99.90
11855;DHT22;5987;53.140;8.904;2023-03-23T04:38:48;11.40;99.90
11855;DHT22;5987;53.140;8.904;2023-03-23T04:41:55;11.40;99.90
11855;DHT22;5987;53.140;8.904;2023-03-23T04:45:02;11.40;99.90
11855;DHT22;5987;53.140;8.904;2023-03-23T04:48:06;11.40;99.90
11855;DHT22;5987;53.140;8.904;2023-03-23T04:51:10;11.50;99.90
11855;DHT22;5987;53.140;8.904;2023-03-23T04:54:15;11.50;99.90
11855;DHT22;5987;53.140;8.904;2023-03-23T04:57:18;11.50;99.90
11855;DHT22;5987;53.140;8.904;2023-03-23T05:00:20;11.50;99.90
11855;DHT22;5987;53.140;8.904;2023-03-23T05:03:23;11.50;99.90
11855;DHT22;5987;53.140;8.904;2023-03-23T05:06:25;11.50;99.90
11855;DHT22;5987;53.140;8.904;2023-03-23T05:09:29;11.50;99.90
11855;DHT22;5987;53.140;8.904;2023-03-23T05:12:31;11.50;99.90
11855;DHT22;5987;53.140;8.904;2023-03-23T05:15:34;11.50;99.90
11855;DHT22;5987;53.140;8.904;2023-03-23T05:18:36;11.60;99.90
11855;DHT22;5987;53.140;8.904;2023-03-23T05:21:39;11.50;99.90
11855;DHT22;5987;53.140;8.904;2023-03-23T05:24:44;11.60;99.90
11855;DHT22;5987;53.140;8.904;2023-03-23T05:27:46;11.60;99.90
11855;DHT22;5987;53.140;8.904;2023-03-23T05:30:53;11.60;99.90
11855;DHT22;5987;53.140;8.904;2023-03-23T05:33:56;11.60;99.90
11855;DHT22;5987;53.140;8.904;2023-03-23T05:36:59;11.70;99.90
11855;DHT22;5987;53.140;8.904;2023-03-23T05:40:05;11.70;99.90
11855;DHT22;5987;53.140;8.904;2023-03-23T05:43:08;11.70;99.90
11855;DHT22;5987;53.140;8.904;2023-03-23T05:46:11;11.80;99.90
11855;DHT22;5987;53.140;8.904;2023-03-23T05:49:13;11.70;99.90
11855;DHT22;5987;53.140;8.904;2023-03-23T05:52:16;11.70;99.90
11855;DHT22;5987;53.140;8.904;2023-03-23T05:55:21;11.70;99.90
11855;DHT22;5987;53.140;8.904;2023-03-23T05:58:23;11.70;99.90
11855;DHT22;5987;53.140;8.904;2023-03-23T06:01:26;11.70;99.90
11855;DHT22;5987;53.140;8.904;2023-03-23T06:04:28;11.70;99.90
11855;DHT22;5987;53.140;8.904;2023-03-23T06:07:34;11.80;99.90
11855;DHT22;5987;53.140;8.904;2023-03-23T06:10:38;11.80;99.90
11855;DHT22;5987;53.140;8.904;2023-03-23T06:13:41;11.80;99.90
11855;DHT22;5987;53.140;8.904;2023-03-23T06:16:43;11.80;99.90
11855;DHT22;5987;53.140;8.904;2023-03-23T06:19:46;11.90;99.90
11855;DHT22;5987;53.140;8.904;2023-03-23T06:22:50;11.90;99.90
11855;DHT22;5987;53.140;8.904;2023-03-23T06:25:55;11.90;99.90
11855;DHT22;5987;53.140;8.904;2023-03-23T06:29:01;11.90;99.90
11855;DHT22;5987;53.140;8.904;2023-03-23T06:32:05;11.90;99.90
11855;DHT22;5987;53.140;8.904;2023-03-23T06:35:09;11.90;99.90
11855;DHT22;5987;53.140;8.904;2023-03-23T06:38:12;11.90;99.90
11855;DHT22;5987;53.140;8.904;2023-03-23T06:41:16;12.00;99.90
11855;DHT22;5987;53.140;8.904;2023-03-23T06:44:20;12.10;99.90
11855;DHT22;5987;53.140;8.904;2023-03-23T06:47:22;12.10;99.90
11855;DHT22;5987;53.140;8.904;2023-03-23T06:50:25;12.10;99.90
11855;DHT22;5987;53.140;8.904;2023-03-23T06:53:27;12.20;99.90
11855;DHT22;5987;53.140;8.904;2023-03-23T06:56:32;12.30;99.90
11855;DHT22;5987;53.140;8.904;2023-03-23T06:59:35;12.40;99.90
11855;DHT22;5987;53.140;8.904;2023-03-23T07:02:37;12.40;99.90
11855;DHT22;5987;53.140;8.904;2023-03-23T07:05:40;12.40;99.90
11855;DHT22;5987;53.140;8.904;2023-03-23T07:08:42;12.50;99.90
11855;DHT22;5987;53.140;8.904;2023-03-23T07:11:46;12.50;99.90
11855;DHT22;5987;53.140;8.904;2023-03-23T07:14:49;12.60;99.90
11855;DHT22;5987;53.140;8.904;2023-03-23T07:17:51;12.60;99.90
11855;DHT22;5987;53.140;8.904;2023-03-23T07:20:55;12.60;99.90
11855;DHT22;5987;53.140;8.904;2023-03-23T07:23:57;12.60;99.90
11855;DHT22;5987;53.140;8.904;2023-03-23T07:27:01;12.50;99.90
11855;DHT22;5987;53.140;8.904;2023-03-23T07:30:05;12.40;99.90
11855;DHT22;5987;53.140;8.904;2023-03-23T07:33:09;12.40;99.90
11855;DHT22;5987;53.140;8.904;2023-03-23T07:36:11;12.30;99.90
11855;DHT22;5987;53.140;8.904;2023-03-23T07:39:14;12.00;99.90
11855;DHT22;5987;53.140;8.904;2023-03-23T07:42:18;11.80;99.90
11855;DHT22;5987;53.140;8.904;2023-03-23T07:45:21;11.60;99.90
11855;DHT22;5987;53.140;8.904;2023-03-23T07:48:24;11.40;99.90
11855;DHT22;5987;53.140;8.904;2023-03-23T07:51:26;11.30;99.90
11855;DHT22;5987;53.140;8.904;2023-03-23T07:54:29;11.40;99.90
11855;DHT22;5987;53.140;8.904;2023-03-23T07:57:33;11.40;99.90
11855;DHT22;5987;53.140;8.904;2023-03-23T08:00:37;11.40;99.90
11855;DHT22;5987;53.140;8.904;2023-03-23T08:03:41;11.40;99.90
11855;DHT22;5987;53.140;8.904;2023-03-23T08:06:44;11.50;99.90
11855;DHT22;5987;53.140;8.904;2023-03-23T08:09:48;11.50;99.90
11855;DHT22;5987;53.140;8.904;2023-03-23T08:12:53;11.50;99.90
11855;DHT22;5987;53.140;8.904;2023-03-23T08:15:57;11.60;99.90
11855;DHT22;5987;53.140;8.904;2023-03-23T08:18:59;11.50;99.90
11855;DHT22;5987;53.140;8.904;2023-03-23T08:22:04;11.50;99.90
11855;DHT22;5987;53.140;8.904;2023-03-23T08:25:08;11.60;99.90
11855;DHT22;5987;53.140;8.904;2023-03-23T08:28:13;11.60;99.90
11855;DHT22;5987;53.140;8.904;2023-03-23T08:31:16;11.70;99.90
11855;DHT22;5987;53.140;8.904;2023-03-23T08:34:19;11.70;99.90
11855;DHT22;5987;53.140;8.904;2023-03-23T08:37:22;11.80;99.90
11855;DHT22;5987;53.140;8.904;2023-03-23T08:40:25;11.80;99.90
11855;DHT22;5987;53.140;8.904;2023-03-23T08:43:30;11.90;99.90
11855;DHT22;5987;53.140;8.904;2023-03-23T08:46:34;11.90;99.90
11855;DHT22;5987;53.140;8.904;2023-03-23T08:49:36;11.90;99.90
11855;DHT22;5987;53.140;8.904;2023-03-23T08:52:39;12.00;99.90
11855;DHT22;5987;53.140;8.904;2023-03-23T08:55:42;12.00;99.90
11855;DHT22;5987;53.140;8.904;2023-03-23T08:58:46;12.00;99.90
11855;DHT22;5987;53.140;8.904;2023-03-23T09:01:49;12.00;99.90
11855;DHT22;5987;53.140;8.904;2023-03-23T09:04:52;12.10;99.90
11855;DHT22;5987;53.140;8.904;2023-03-23T09:07:56;12.20;99.90
11855;DHT22;5987;53.140;8.904;2023-03-23T09:11:00;12.20;99.90
11855;DHT22;5987;53.140;8.904;2023-03-23T09:14:05;12.10;99.90
11855;DHT22;5987;53.140;8.904;2023-03-23T09:17:10;12.20;99.90
11855;DHT22;5987;53.140;8.904;2023-03-23T09:20:15;12.30;99.90
11855;DHT22;5987;53.140;8.904;2023-03-23T09:23:20;12.30;99.90
11855;DHT22;5987;53.140;8.904;2023-03-23T09:26:22;12.20;99.90
11855;DHT22;5987;53.140;8.904;2023-03-23T09:29:27;12.20;99.90
11855;DHT22;5987;53.140;8.904;2023-03-23T09:32:29;12.20;99.90
11855;DHT22;5987;53.140;8.904;2023-03-23T09:35:34;12.30;99.90
11855;DHT22;5987;53.140;8.904;2023-03-23T09:38:38;12.40;99.90
11855;DHT22;5987;53.140;8.904;2023-03-23T09:41:53;12.60;99.90
11855;DHT22;5987;53.140;8.904;2023-03-23T09:45:13;12.80;99.90
11855;DHT22;5987;53.140;8.904;2023-03-23T09:48:41;13.10;99.90
11855;DHT22;5987;53.140;8.904;2023-03-23T09:51:53;13.30;99.90
11855;DHT22;5987;53.140;8.904;2023-03-23T09:54:59;13.40;99.90
11855;DHT22;5987;53.140;8.904;2023-03-23T09:58:10;13.40;99.90
11855;DHT22;5987;53.140;8.904;2023-03-23T10:01:25;13.40;99.90
11855;DHT22;5987;53.140;8.904;2023-03-23T10:04:36;13.60;99.90
11855;DHT22;5987;53.140;8.904;2023-03-23T10:07:41;13.70;99.90
11855;DHT22;5987;53.140;8.904;2023-03-23T10:10:56;13.70;99.90
11855;DHT22;5987;53.140;8.904;2023-03-23T10:14:30;13.80;99.90
11855;DHT22;5987;53.140;8.904;2023-03-23T10:17:48;13.90;99.90
11855;DHT22;5987;53.140;8.904;2023-03-23T10:20:57;14.00;99.90
11855;DHT22;5987;53.140;8.904;2023-03-23T10:24:01;13.80;99.90
11855;DHT22;5987;53.140;8.904;2023-03-23T10:27:18;14.00;99.90
11855;DHT22;5987;53.140;8.904;2023-03-23T10:30:28;14.10;99.90
11855;DHT22;5987;53.140;8.904;2023-03-23T10:33:39;14.20;99.90
11855;DHT22;5987;53.140;8.904;2023-03-23T10:36:55;14.00;99.90
11855;DHT22;5987;53.140;8.904;2023-03-23T10:40:05;13.90;99.90
11855;DHT22;5987;53.140;8.904;2023-03-23T10:43:15;13.80;99.90
11855;DHT22;5987;53.140;8.904;2023-03-23T10:46:27;13.80;99.90
11855;DHT22;5987;53.140;8.904;2023-03-23T10:49:41;13.90;99.90
11855;DHT22;5987;53.140;8.904;2023-03-23T10:52:50;14.10;99.90
11855;DHT22;5987;53.140;8.904;2023-03-23T10:55:54;14.20;99.90
11855;DHT22;5987;53.140;8.904;2023-03-23T10:58:57;14.10;99.90
11855;DHT22;5987;53.140;8.904;2023-03-23T11:02:02;14.30;99.90
11855;DHT22;5987;53.140;8.904;2023-03-23T11:05:20;14.20;99.90
11855;DHT22;5987;53.140;8.904;2023-03-23T11:08:28;14.30;99.90
11855;DHT22;5987;53.140;8.904;2023-03-23T11:11:37;14.40;99.90
11855;DHT22;5987;53.140;8.904;2023-03-23T11:14:43;14.20;99.90
11855;DHT22;5987;53.140;8.904;2023-03-23T11:17:55;13.90;99.90
11855;DHT22;5987;53.140;8.904;2023-03-23T11:21:01;13.90;99.90
11855;DHT22;5987;53.140;8.904;2023-03-23T11:24:08;14.00;99.90
11855;DHT22;5987;53.140;8.904;2023-03-23T11:27:11;14.00;99.90
11855;DHT22;5987;53.140;8.904;2023-03-23T11:30:22;13.90;99.90
11855;DHT22;5987;53.140;8.904;2023-03-23T11:33:36;13.80;99.90
11855;DHT22;5987;53.140;8.904;2023-03-23T11:36:55;13.90;99.90
11855;DHT22;5987;53.140;8.904;2023-03-23T11:40:02;13.90;99.90
11855;DHT22;5987;53.140;8.904;2023-03-23T11:43:20;13.90;99.90
11855;DHT22;5987;53.140;8.904;2023-03-23T11:46:33;13.80;99.90
11855;DHT22;5987;53.140;8.904;2023-03-23T11:49:44;14.00;99.90
11855;DHT22;5987;53.140;8.904;2023-03-23T11:53:02;14.40;99.90
11855;DHT22;5987;53.140;8.904;2023-03-23T11:56:21;14.80;99.90
11855;DHT22;5987;53.140;8.904;2023-03-23T11:59:28;14.90;99.90
11855;DHT22;5987;53.140;8.904;2023-03-23T12:04:03;15.10;99.90
11855;DHT22;5987;53.140;8.904;2023-03-23T12:06:11;15.00;99.90
11855;DHT22;5987;53.140;8.904;2023-03-23T12:09:38;14.90;99.90
11855;DHT22;5987;53.140;8.904;2023-03-23T12:12:58;14.70;99.90
11855;DHT22;5987;53.140;8.904;2023-03-23T12:16:16;14.80;99.90
11855;DHT22;5987;53.140;8.904;2023-03-23T12:19:33;14.90;99.90
11855;DHT22;5987;53.140;8.904;2023-03-23T12:22:54;15.10;99.90
11855;DHT22;5987;53.140;8.904;2023-03-23T12:26:21;15.00;99.90
11855;DHT22;5987;53.140;8.904;2023-03-23T12:29:39;14.80;99.90
11855;DHT22;5987;53.140;8.904;2023-03-23T12:33:11;14.60;99.90
11855;DHT22;5987;53.140;8.904;2023-03-23T12:36:30;14.40;99.90
11855;DHT22;5987;53.140;8.904;2023-03-23T12:40:06;14.60;99.90
11855;DHT22;5987;53.140;8.904;2023-03-23T12:43:31;14.60;99.90
11855;DHT22;5987;53.140;8.904;2023-03-23T12:47:03;14.60;99.90
11855;DHT22;5987;53.140;8.904;2023-03-23T12:50:21;14.50;99.90
11855;DHT22;5987;53.140;8.904;2023-03-23T12:53:32;14.50;99.90
11855;DHT22;5987;53.140;8.904;2023-03-23T12:56:50;14.70;99.90
11855;DHT22;5987;53.140;8.904;2023-03-23T13:00:04;14.90;99.90
11855;DHT22;5987;53.140;8.904;2023-03-23T13:03:19;14.80;99.90
11855;DHT22;5987;53.140;8.904;2023-03-23T13:06:31;15.10;99.90
11855;DHT22;5987;53.140;8.904;2023-03-23T13:09:46;15.40;99.90
11855;DHT22;5987;53.140;8.904;2023-03-23T13:12:54;15.60;99.90
11855;DHT22;5987;53.140;8.904;2023-03-23T13:16:04;15.80;99.90
11855;DHT22;5987;53.140;8.904;2023-03-23T13:19:16;15.80;99.90
11855;DHT22;5987;53.140;8.904;2023-03-23T13:22:33;15.80;99.90
11855;DHT22;5987;53.140;8.904;2023-03-23T13:25:48;15.60;99.90
11855;DHT22;5987;53.140;8.904;2023-03-23T13:28:56;15.50;99.90
11855;DHT22;5987;53.140;8.904;2023-03-23T13:32:12;15.50;99.90
11855;DHT22;5987;53.140;8.904;2023-03-23T13:35:19;15.50;99.90
11855;DHT22;5987;53.140;8.904;2023-03-23T13:38:24;15.40;99.90
11855;DHT22;5987;53.140;8.904;2023-03-23T13:41:29;15.30;99.90
11855;DHT22;5987;53.140;8.904;2023-03-23T13:44:42;15.20;99.90
11855;DHT22;5987;53.140;8.904;2023-03-23T13:48:22;15.00;99.90
11855;DHT22;5987;53.140;8.904;2023-03-23T13:51:34;14.90;99.90
11855;DHT22;5987;53.140;8.904;2023-03-23T13:54:51;14.70;99.90
11855;DHT22;5987;53.140;8.904;2023-03-23T13:57:55;14.20;99.90
11855;DHT22;5987;53.140;8.904;2023-03-23T14:01:11;13.90;99.90
11855;DHT22;5987;53.140;8.904;2023-03-23T14:04:19;13.60;99.90
11855;DHT22;5987;53.140;8.904;2023-03-23T14:07:22;13.20;99.90
11855;DHT22;5987;53.140;8.904;2023-03-23T14:10:31;12.80;99.90
11855;DHT22;5987;53.140;8.904;2023-03-23T14:13:44;12.40;99.90
11855;DHT22;5987;53.140;8.904;2023-03-23T14:16:52;12.20;99.90
11855;DHT22;5987;53.140;8.904;2023-03-23T14:20:19;12.00;99.90
11855;DHT22;5987;53.140;8.904;2023-03-23T14:23:27;11.90;99.90
11855;DHT22;5987;53.140;8.904;2023-03-23T14:26:34;11.70;99.90
11855;DHT22;5987;53.140;8.904;2023-03-23T14:29:38;11.50;99.90
11855;DHT22;5987;53.140;8.904;2023-03-23T14:32:40;11.50;99.90
11855;DHT22;5987;53.140;8.904;2023-03-23T14:35:46;11.60;99.90
11855;DHT22;5987;53.140;8.904;2023-03-23T14:38:58;12.00;99.90
11855;DHT22;5987;53.140;8.904;2023-03-23T14:42:06;12.60;99.90
11855;DHT22;5987;53.140;8.904;2023-03-23T14:45:15;12.90;99.90
11855;DHT22;5987;53.140;8.904;2023-03-23T14:48:21;13.10;99.90
11855;DHT22;5987;53.140;8.904;2023-03-23T14:51:25;13.30;99.90
11855;DHT22;5987;53.140;8.904;2023-03-23T14:54:28;13.40;99.90
11855;DHT22;5987;53.140;8.904;2023-03-23T14:57:30;13.40;99.90
11855;DHT22;5987;53.140;8.904;2023-03-23T15:00:36;13.50;99.90
11855;DHT22;5987;53.140;8.904;2023-03-23T15:03:45;13.60;99.90
11855;DHT22;5987;53.140;8.904;2023-03-23T15:07:00;13.70;99.90
11855;DHT22;5987;53.140;8.904;2023-03-23T15:10:07;13.80;99.90
11855;DHT22;5987;53.140;8.904;2023-03-23T15:13:12;13.70;99.90
11855;DHT22;5987;53.140;8.904;2023-03-23T15:16:20;13.90;99.90
11855;DHT22;5987;53.140;8.904;2023-03-23T15:19:28;14.20;99.90
11855;DHT22;5987;53.140;8.904;2023-03-23T15:22:45;14.20;99.90
11855;DHT22;5987;53.140;8.904;2023-03-23T15:25:51;14.30;99.90
11855;DHT22;5987;53.140;8.904;2023-03-23T15:29:12;14.40;99.90
11855;DHT22;5987;53.140;8.904;2023-03-23T15:32:22;14.50;99.90
11855;DHT22;5987;53.140;8.904;2023-03-23T15:35:27;14.60;99.90
11855;DHT22;5987;53.140;8.904;2023-03-23T15:38:36;14.60;99.90
11855;DHT22;5987;53.140;8.904;2023-03-23T15:41:46;14.60;99.90
11855;DHT22;5987;53.140;8.904;2023-03-23T15:44:58;14.50;99.90
11855;DHT22;5987;53.140;8.904;2023-03-23T15:48:17;14.40;99.90
11855;DHT22;5987;53.140;8.904;2023-03-23T15:51:20;14.30;99.90
11855;DHT22;5987;53.140;8.904;2023-03-23T15:54:29;14.20;99.90
11855;DHT22;5987;53.140;8.904;2023-03-23T15:57:34;14.30;99.90
11855;DHT22;5987;53.140;8.904;2023-03-23T16:00:36;14.30;99.90
11855;DHT22;5987;53.140;8.904;2023-03-23T16:03:44;14.30;99.90
11855;DHT22;5987;53.140;8.904;2023-03-23T16:06:55;14.20;99.90
11855;DHT22;5987;53.140;8.904;2023-03-23T16:10:01;14.20;99.90
11855;DHT22;5987;53.140;8.904;2023-03-23T16:13:05;14.30;99.90
11855;DHT22;5987;53.140;8.904;2023-03-23T16:16:13;14.40;99.90
11855;DHT22;5987;53.140;8.904;2023-03-23T16:19:19;14.40;99.90
11855;DHT22;5987;53.140;8.904;2023-03-23T16:22:25;14.30;99.90
11855;DHT22;5987;53.140;8.904;2023-03-23T16:25:30;14.30;99.90
11855;DHT22;5987;53.140;8.904;2023-03-23T16:28:34;14.20;99.90
11855;DHT22;5987;53.140;8.904;2023-03-23T16:31:37;14.10;99.90
11855;DHT22;5987;53.140;8.904;2023-03-23T16:34:41;14.00;99.90
11855;DHT22;5987;53.140;8.904;2023-03-23T16:37:45;13.90;99.90
11855;DHT22;5987;53.140;8.904;2023-03-23T16:40:51;13.80;99.90
11855;DHT22;5987;53.140;8.904;2023-03-23T16:43:55;13.80;99.90
11855;DHT22;5987;53.140;8.904;2023-03-23T16:46:58;13.60;99.90
11855;DHT22;5987;53.140;8.904;2023-03-23T16:50:03;13.60;99.90
11855;DHT22;5987;53.140;8.904;2023-03-23T16:53:09;13.50;99.90
11855;DHT22;5987;53.140;8.904;2023-03-23T16:56:15;13.50;99.90
11855;DHT22;5987;53.140;8.904;2023-03-23T16:59:19;13.50;99.90
11855;DHT22;5987;53.140;8.904;2023-03-23T17:02:26;13.40;99.90
11855;DHT22;5987;53.140;8.904;2023-03-23T17:05:30;13.30;99.90
11855;DHT22;5987;53.140;8.904;2023-03-23T17:08:34;13.30;99.90
11855;DHT22;5987;53.140;8.904;2023-03-23T17:11:39;13.20;99.90
11855;DHT22;5987;53.140;8.904;2023-03-23T17:14:43;13.10;99.90
11855;DHT22;5987;53.140;8.904;2023-03-23T17:17:46;13.10;99.90
11855;DHT22;5987;53.140;8.904;2023-03-23T17:20:52;13.00;99.90
11855;DHT22;5987;53.140;8.904;2023-03-23T17:23:55;13.00;99.90
11855;DHT22;5987;53.140;8.904;2023-03-23T17:27:00;12.90;99.90
11855;DHT22;5987;53.140;8.904;2023-03-23T17:30:06;12.80;99.90
11855;DHT22;5987;53.140;8.904;2023-03-23T17:33:12;12.80;99.90
11855;DHT22;5987;53.140;8.904;2023-03-23T17:36:16;12.80;99.90
11855;DHT22;5987;53.140;8.904;2023-03-23T17:39:20;12.70;99.90
11855;DHT22;5987;53.140;8.904;2023-03-23T17:42:25;12.60;99.90
11855;DHT22;5987;53.140;8.904;2023-03-23T17:45:28;12.50;99.90
11855;DHT22;5987;53.140;8.904;2023-03-23T17:48:32;12.40;99.90
11855;DHT22;5987;53.140;8.904;2023-03-23T17:51:37;12.40;99.90
11855;DHT22;5987;53.140;8.904;2023-03-23T17:54:40;12.30;99.90
11855;DHT22;5987;53.140;8.904;2023-03-23T17:57:45;12.30;99.90
11855;DHT22;5987;53.140;8.904;2023-03-23T18:00:49;12.30;99.90
11855;DHT22;5987;53.140;8.904;2023-03-23T18:03:53;12.20;99.90
11855;DHT22;5987;53.140;8.904;2023-03-23T18:06:57;12.20;99.90
11855;DHT22;5987;53.140;8.904;2023-03-23T18:10:01;12.20;99.90
11855;DHT22;5987;53.140;8.904;2023-03-23T18:13:07;12.20;99.90
11855;DHT22;5987;53.140;8.904;2023-03-23T18:16:11;12.20;99.90
11855;DHT22;5987;53.140;8.904;2023-03-23T18:19:15;12.20;99.90
11855;DHT22;5987;53.140;8.904;2023-03-23T18:22:18;12.20;99.90
11855;DHT22;5987;53.140;8.904;2023-03-23T18:25:22;12.20;99.90
11855;DHT22;5987;53.140;8.904;2023-03-23T18:28:28;12.20;99.90
11855;DHT22;5987;53.140;8.904;2023-03-23T18:31:32;12.20;99.90
11855;DHT22;5987;53.140;8.904;2023-03-23T18:34:41;12.20;99.90
11855;DHT22;5987;53.140;8.904;2023-03-23T18:37:45;12.20;99.90
11855;DHT22;5987;53.140;8.904;2023-03-23T18:40:49;12.20;99.90
11855;DHT22;5987;53.140;8.904;2023-03-23T18:43:54;12.20;99.90
11855;DHT22;5987;53.140;8.904;2023-03-23T18:46:58;12.20;99.90
11855;DHT22;5987;53.140;8.904;2023-03-23T18:50:02;12.10;99.90
11855;DHT22;5987;53.140;8.904;2023-03-23T18:53:07;12.10;99.90
11855;DHT22;5987;53.140;8.904;2023-03-23T18:56:12;12.10;99.90
11855;DHT22;5987;53.140;8.904;2023-03-23T18:59:18;12.10;99.90
11855;DHT22;5987;53.140;8.904;2023-03-23T19:02:24;12.10;99.90
11855;DHT22;5987;53.140;8.904;2023-03-23T19:05:28;12.00;99.90
11855;DHT22;5987;53.140;8.904;2023-03-23T19:08:32;12.00;99.90
11855;DHT22;5987;53.140;8.904;2023-03-23T19:11:36;12.00;99.90
11855;DHT22;5987;53.140;8.904;2023-03-23T19:14:42;11.90;99.90
11855;DHT22;5987;53.140;8.904;2023-03-23T19:17:45;11.90;99.90
11855;DHT22;5987;53.140;8.904;2023-03-23T19:20:49;11.90;99.90
11855;DHT22;5987;53.140;8.904;2023-03-23T19:23:57;11.80;99.90
11855;DHT22;5987;53.140;8.904;2023-03-23T19:27:01;11.80;99.90
11855;DHT22;5987;53.140;8.904;2023-03-23T19:30:07;11.70;99.90
11855;DHT22;5987;53.140;8.904;2023-03-23T19:33:12;11.60;99.90
11855;DHT22;5987;53.140;8.904;2023-03-23T19:36:16;11.60;99.90
11855;DHT22;5987;53.140;8.904;2023-03-23T19:39:21;11.50;99.90
11855;DHT22;5987;53.140;8.904;2023-03-23T19:42:26;11.50;99.90
11855;DHT22;5987;53.140;8.904;2023-03-23T19:45:31;11.50;99.90
11855;DHT22;5987;53.140;8.904;2023-03-23T19:48:35;11.40;99.90
11855;DHT22;5987;53.140;8.904;2023-03-23T19:51:40;11.40;99.90
11855;DHT22;5987;53.140;8.904;2023-03-23T19:54:44;11.30;99.90
11855;DHT22;5987;53.140;8.904;2023-03-23T19:57:47;11.20;99.90
11855;DHT22;5987;53.140;8.904;2023-03-23T20:00:53;11.20;99.90